ADDS METAR Data INFO
IDs: Format: Raw Decoded Include TAF

Data at: 2234 UTC 11 Dec 2017

KFST 112153Z AUTO 29004KT 10SM CLR 18/M03 A3025 RMK AO2 SLP219 T01781033
KFST 112053Z AUTO 29003KT 10SM CLR 18/M04 A3025 RMK AO2 SLP219 T01831039 56024
KFST 111953Z AUTO 24003KT 10SM CLR 18/M04 A3026 RMK AO2 SLP223 T01831039
KFST 111853Z AUTO 23003KT 10SM CLR 17/M04 A3029 RMK AO2 SLP235 T01721039
KFST 111753Z AUTO 24003KT 10SM CLR 16/M03 A3033 RMK AO2 SLP248 T01611028 10161 20033 58007
KFST 111653Z AUTO 23006KT 10SM CLR 14/M01 A3036 RMK AO2 SLP260 T01441011
KFST 111553Z AUTO 23009KT 10SM CLR 09/M02 A3036 RMK AO2 SLP265 T00941017
KFST 111453Z AUTO 21011KT 10SM CLR 07/M03 A3035 RMK AO2 SLP264 T00671028 50001
KFST 111353Z AUTO 22011KT 10SM CLR 04/M03 A3036 RMK AO2 SLP266 T00391033
KFST 111253Z AUTO 23010KT 10SM CLR 04/M03 A3035 RMK AO2 SLP263 T00391033
KFST 111153Z AUTO 22010KT 10SM CLR 04/M03 A3035 RMK AO2 SLP260 T00441033 10061 20039 56013
KFST 111053Z AUTO 23009KT 10SM CLR 04/M03 A3036 RMK AO2 SLP258 T00441033
KFST 110953Z AUTO 22009KT 10SM CLR 05/M03 A3037 RMK AO2 SLP263 T00501028
KFST 110853Z AUTO 22011KT 10SM CLR 06/M02 A3039 RMK AO2 SLP268 T00561022 58007
KFST 110753Z AUTO 22011KT 10SM CLR 06/M02 A3040 RMK AO2 SLP273 T00561022
KFST 110653Z AUTO 22013KT 10SM CLR 06/M03 A3042 RMK AO2 SLP280 T00611028
KFST 110553Z AUTO 22012KT 10SM CLR 06/M02 A3041 RMK AO2 SLP279 T00561022 10122 20050 401780017 53001
KFST 110453Z AUTO 22011KT 10SM CLR 06/M02 A3041 RMK AO2 SLP279 T00561022
KFST 110353Z AUTO 22012KT 10SM CLR 06/M01 A3041 RMK AO2 SLP283 T00611011
KFST 110253Z AUTO 22010KT 10SM CLR 08/M01 A3041 RMK AO2 SLP285 T00781011 51007
KFST 110153Z AUTO 16006KT 10SM CLR 08/00 A3041 RMK AO2 SLP286 T00830000
KFST 110053Z AUTO 12005KT 10SM CLR 11/01 A3040 RMK AO2 SLP278 T01110006
KFST 102353Z AUTO 08003KT 10SM CLR 12/02 A3039 RMK AO2 SLP272 T01220022 10178 20122 56007
KFST 102253Z AUTO 06004KT 10SM CLR 16/01 A3039 RMK AO2 SLP271 T01610011
KFST 102153Z AUTO 10004KT 10SM CLR 17/M04 A3040 RMK AO2 SLP273 T01721044
KFST 102053Z AUTO 00000KT 10SM CLR 17/M03 A3041 RMK AO2 SLP275 T01721033 56024
KFST 101953Z AUTO 00000KT 10SM CLR 16/M01 A3042 RMK AO2 SLP280 T01611011 $
KFST 101853Z AUTO 00000KT 10SM CLR 14/01 A3046 RMK AO2 SLP295 T01440006 $
KFST 101753Z AUTO 36003KT 10SM CLR 14/00 A3049 RMK AO2 SLP304 T01390000 10139 20017 50002 $
KFST 101653Z AUTO 28004KT 10SM CLR 12/M02 A3050 RMK AO2 SLP309 T01171017 $
KFST 101553Z AUTO 23005KT 10SM CLR 09/M03 A3050 RMK AO2 SLP312 T00891033 $
KFST 101453Z AUTO 23008KT 10SM CLR 06/M04 A3048 RMK AO2 SLP308 T00561039 51014 $
KFST 101353Z AUTO 00000KT 10SM CLR 02/M04 A3047 RMK AO2 SLP306 T00171039 $
KFST 101253Z AUTO 22012KT 10SM CLR 05/M04 A3045 RMK AO2 SLP295 T00501044 $
KFST 101153Z AUTO 22011KT 10SM CLR 06/M04 A3043 RMK AO2 SLP289 T00561044 10061 20050 53006 $
KFST 101053Z AUTO 22012KT 10SM CLR 05/M03 A3042 RMK AO2 SLP282 T00501033 $